createdAt,value
2018-03-28T00:00:52.024Z,15.57
2018-03-28T00:03:19.568Z,16.20
2018-03-28T00:05:47.100Z,15.00
2018-03-28T00:08:14.677Z,16.15
2018-03-28T00:10:42.225Z,14.53
2018-03-28T00:13:09.775Z,14.07
2018-03-28T00:15:37.299Z,15.33
2018-03-28T00:18:04.849Z,14.30
2018-03-28T00:20:32.387Z,14.97
2018-03-28T00:22:59.912Z,14.73
2018-03-28T00:25:27.473Z,14.80
2018-03-28T00:27:55.000Z,15.63
2018-03-28T00:30:22.573Z,17.10
2018-03-28T00:32:50.100Z,17.73
2018-03-28T00:35:17.653Z,17.83
2018-03-28T00:37:45.203Z,15.30
2018-03-28T00:40:12.754Z,16.47
2018-03-28T00:42:40.276Z,16.03
2018-03-28T00:45:07.837Z,16.50
2018-03-28T00:47:35.384Z,16.00
2018-03-28T00:50:02.935Z,18.07
2018-03-28T00:52:30.467Z,16.73
2018-03-28T00:54:58.054Z,14.82
2018-03-28T00:57:25.576Z,14.83
2018-03-28T00:59:53.131Z,16.63
2018-03-28T01:02:20.647Z,14.63
2018-03-28T01:04:48.196Z,14.43
2018-03-28T01:07:15.720Z,13.07
2018-03-28T01:09:43.298Z,15.10
2018-03-28T01:12:10.839Z,11.50
2018-03-28T01:14:38.388Z,17.97
2018-03-28T01:17:05.908Z,16.90
2018-03-28T01:19:34.268Z,11.80
2018-03-28T01:22:01.804Z,15.27
2018-03-28T01:24:29.373Z,13.53
2018-03-28T01:26:56.895Z,12.13
2018-03-28T01:29:24.460Z,13.53
2018-03-28T01:31:51.992Z,10.63
2018-03-28T01:34:19.551Z,12.80
2018-03-28T01:36:47.084Z,9.88
2018-03-28T01:39:14.660Z,10.07
2018-03-28T01:41:42.285Z,9.35
2018-03-28T01:44:09.832Z,9.73
2018-03-28T01:46:37.365Z,5.97
2018-03-28T01:49:04.928Z,7.60
2018-03-28T01:51:32.473Z,8.33
2018-03-28T01:54:00.020Z,7.17
2018-03-28T01:56:27.576Z,8.20
2018-03-28T01:58:55.187Z,7.63
2018-03-28T02:01:22.728Z,7.83
2018-03-28T02:03:50.244Z,7.90
2018-03-28T02:06:17.783Z,6.83
2018-03-28T02:08:45.301Z,5.47
2018-03-28T02:11:12.857Z,6.40
2018-03-28T02:13:40.387Z,7.75
2018-03-28T02:16:07.950Z,6.50
2018-03-28T02:18:35.493Z,6.83
2018-03-28T02:21:03.047Z,5.30
2018-03-28T02:23:30.560Z,5.10
2018-03-28T02:25:58.112Z,6.53
2018-03-28T02:28:25.627Z,4.40
2018-03-28T02:30:53.184Z,4.07
2018-03-28T02:33:20.709Z,5.15
2018-03-28T02:35:48.284Z,5.30
2018-03-28T02:38:15.815Z,5.93
2018-03-28T02:40:43.367Z,6.17
2018-03-28T02:43:10.890Z,6.30
2018-03-28T02:45:38.473Z,5.97
2018-03-28T02:48:05.993Z,6.90
2018-03-28T02:50:33.562Z,6.97
2018-03-28T02:53:01.076Z,7.60
2018-03-28T02:55:28.646Z,6.93
2018-03-28T02:57:56.176Z,8.70
2018-03-28T03:00:23.747Z,7.05
2018-03-28T03:02:51.265Z,7.27
2018-03-28T03:05:18.831Z,5.85
2018-03-28T03:07:46.453Z,5.43
2018-03-28T03:10:15.206Z,5.33
2018-03-28T03:12:42.723Z,6.55
2018-03-28T03:15:12.238Z,6.35
2018-03-28T03:17:39.976Z,5.30
2018-03-28T03:20:09.727Z,5.37
2018-03-28T03:22:39.203Z,4.93
2018-03-28T03:25:08.285Z,4.80
2018-03-28T03:27:37.008Z,4.43
2018-03-28T03:30:05.038Z,4.53
2018-03-28T03:32:33.084Z,3.77
2018-03-28T03:35:00.914Z,3.43
2018-03-28T03:37:30.030Z,4.17
2018-03-28T03:39:59.084Z,4.20
2018-03-28T03:42:26.969Z,4.50
2018-03-28T03:44:56.007Z,3.60
2018-03-28T03:47:23.837Z,4.22
2018-03-28T03:49:51.577Z,4.07
2018-03-28T03:52:20.855Z,3.97
2018-03-28T03:54:48.378Z,4.10
2018-03-28T03:57:15.936Z,3.83
2018-03-28T03:59:43.443Z,4.40
2018-03-28T04:02:10.999Z,3.90
2018-03-28T04:04:38.519Z,3.83
2018-03-28T04:07:06.993Z,3.37
2018-03-28T04:09:34.512Z,3.20
2018-03-28T04:12:02.068Z,2.97
2018-03-28T04:14:29.589Z,3.10
2018-03-28T04:16:57.137Z,3.67
2018-03-28T04:19:24.642Z,3.70
2018-03-28T04:21:52.207Z,2.83
2018-03-28T04:24:19.729Z,3.37
2018-03-28T04:26:47.536Z,3.10
2018-03-28T04:29:15.034Z,3.00
2018-03-28T04:31:42.583Z,3.42
2018-03-28T04:34:10.087Z,3.30
2018-03-28T04:36:38.079Z,3.53
2018-03-28T04:39:05.572Z,3.03
2018-03-28T04:41:33.123Z,3.20
2018-03-28T04:44:00.656Z,2.80
2018-03-28T04:46:28.275Z,2.80
2018-03-28T04:48:55.834Z,3.22
2018-03-28T04:51:23.382Z,2.67
2018-03-28T04:53:50.900Z,3.13
2018-03-28T04:56:18.439Z,3.03
2018-03-28T04:58:45.959Z,3.37
2018-03-28T05:01:13.505Z,3.20
2018-03-28T05:03:41.091Z,2.70
2018-03-28T05:06:08.748Z,2.93
2018-03-28T05:08:36.259Z,3.70
2018-03-28T05:11:03.823Z,2.73
2018-03-28T05:13:31.355Z,3.10
2018-03-28T05:15:58.904Z,2.50
2018-03-28T05:18:26.462Z,2.80
2018-03-28T05:20:53.988Z,3.65
2018-03-28T05:23:21.540Z,3.53
2018-03-28T05:25:49.048Z,3.40
2018-03-28T05:28:16.598Z,3.60
2018-03-28T05:30:44.122Z,3.83
2018-03-28T05:33:11.672Z,2.93
2018-03-28T05:35:39.192Z,4.50
2018-03-28T05:38:06.744Z,4.67
2018-03-28T05:40:34.248Z,4.77
2018-03-28T05:43:01.797Z,3.23
2018-03-28T05:45:31.040Z,2.27
2018-03-28T05:47:58.593Z,4.27
2018-03-28T05:50:26.141Z,3.50
2018-03-28T05:52:53.844Z,2.30
2018-03-28T05:55:21.348Z,3.00
2018-03-28T05:57:48.892Z,3.87
2018-03-28T06:00:16.413Z,4.07
2018-03-28T06:02:43.981Z,3.80
2018-03-28T06:05:11.501Z,4.87
2018-03-28T06:07:39.056Z,4.67
2018-03-28T06:10:06.566Z,4.17
2018-03-28T06:12:34.140Z,4.13
2018-03-28T06:15:01.668Z,5.27
2018-03-28T06:17:29.219Z,4.70
2018-03-28T06:19:56.731Z,4.70
2018-03-28T06:22:24.283Z,4.57
2018-03-28T06:24:51.821Z,4.43
2018-03-28T06:27:19.373Z,4.70
2018-03-28T06:29:46.883Z,4.90
2018-03-28T06:32:14.444Z,4.28
2018-03-28T06:34:41.974Z,4.97
2018-03-28T06:37:09.531Z,4.20
2018-03-28T06:39:37.076Z,4.60
2018-03-28T06:42:06.561Z,4.33
2018-03-28T06:44:34.096Z,3.73
2018-03-28T06:47:02.007Z,4.60
2018-03-28T06:49:29.588Z,4.23
2018-03-28T06:51:57.186Z,5.40
2018-03-28T06:54:24.702Z,5.67
2018-03-28T06:56:52.227Z,4.32
2018-03-28T06:59:19.776Z,5.70
2018-03-28T07:01:47.296Z,5.47
2018-03-28T07:04:14.859Z,6.43
2018-03-28T07:06:42.795Z,6.95
2018-03-28T07:09:10.501Z,7.03
2018-03-28T07:11:38.429Z,5.60
2018-03-28T07:14:05.972Z,4.90
2018-03-28T07:16:34.407Z,5.30
2018-03-28T07:19:02.080Z,3.67
2018-03-28T07:21:29.626Z,4.87
2018-03-28T07:23:57.171Z,5.10
2018-03-28T07:26:24.692Z,4.83
2018-03-28T07:28:52.240Z,5.90
2018-03-28T07:31:19.754Z,5.40
2018-03-28T07:33:47.333Z,5.55
2018-03-28T07:36:14.859Z,5.77
2018-03-28T07:38:42.413Z,6.60
2018-03-28T07:41:09.937Z,5.43
2018-03-28T07:43:37.492Z,4.95
2018-03-28T07:46:05.045Z,4.67
2018-03-28T07:48:32.615Z,6.10
2018-03-28T07:51:00.171Z,6.10
2018-03-28T07:53:27.718Z,5.50
2018-03-28T07:55:55.354Z,6.13
2018-03-28T07:58:22.908Z,5.00
2018-03-28T08:00:50.431Z,5.57
2018-03-28T08:03:17.981Z,4.82
2018-03-28T08:05:46.417Z,4.03
2018-03-28T08:08:14.107Z,4.93
2018-03-28T08:10:41.625Z,6.30
2018-03-28T08:13:09.685Z,5.00
2018-03-28T08:15:41.297Z,4.10
2018-03-28T08:18:11.894Z,3.73
2018-03-28T08:20:39.576Z,4.10
2018-03-28T08:23:07.148Z,4.37
2018-03-28T08:25:35.298Z,3.63
2018-03-28T08:28:02.951Z,4.07
2018-03-28T08:30:30.707Z,4.13
2018-03-28T08:32:58.241Z,3.77
2018-03-28T08:35:26.315Z,3.95
2018-03-28T08:37:53.902Z,3.58
2018-03-28T08:40:21.491Z,3.27
2018-03-28T08:42:48.997Z,4.57
2018-03-28T08:45:22.449Z,4.22
2018-03-28T08:47:50.333Z,3.17
2018-03-28T08:50:23.554Z,3.97
2018-03-28T08:52:51.375Z,3.30
2018-03-28T08:55:19.078Z,3.40
2018-03-28T08:57:46.768Z,3.15
2018-03-28T09:00:14.368Z,3.70
2018-03-28T09:02:42.158Z,4.20
2018-03-28T09:05:10.740Z,2.53
2018-03-28T09:07:39.480Z,2.62
2018-03-28T09:10:12.936Z,2.63
2018-03-28T09:12:41.027Z,4.67
2018-03-28T09:15:09.299Z,6.60
2018-03-28T09:17:37.152Z,5.30
2018-03-28T09:20:04.727Z,4.43
2018-03-28T09:22:32.253Z,4.60
2018-03-28T09:24:59.800Z,4.63
2018-03-28T09:27:27.568Z,5.07
2018-03-28T09:29:55.348Z,3.50
2018-03-28T09:32:26.609Z,4.10
2018-03-28T09:34:56.664Z,2.93
2018-03-28T09:37:24.378Z,3.93
2018-03-28T09:39:59.350Z,7.80
2018-03-28T09:42:31.263Z,4.70
2018-03-28T09:44:59.399Z,4.53
2018-03-28T09:47:27.152Z,3.77
2018-03-28T09:49:54.739Z,4.07
2018-03-28T09:52:26.152Z,2.95
2018-03-28T09:54:53.862Z,3.93
2018-03-28T09:57:22.017Z,5.43
2018-03-28T09:59:50.075Z,4.73
2018-03-28T10:02:17.595Z,5.10
2018-03-28T10:04:50.075Z,5.15
2018-03-28T10:07:17.603Z,5.10
2018-03-28T10:09:45.151Z,3.87
2018-03-28T10:12:12.684Z,4.50
2018-03-28T10:14:40.922Z,4.95
2018-03-28T10:17:08.514Z,7.93
2018-03-28T10:19:36.163Z,5.47
2018-03-28T10:22:03.804Z,4.53
2018-03-28T10:24:31.488Z,4.30
2018-03-28T10:26:59.106Z,4.43
2018-03-28T10:29:26.740Z,4.90
2018-03-28T10:31:54.287Z,4.90
2018-03-28T10:34:21.820Z,3.47
2018-03-28T10:36:50.111Z,3.70
2018-03-28T10:39:17.630Z,4.40
2018-03-28T10:41:45.207Z,3.70
2018-03-28T10:44:12.749Z,4.17
2018-03-28T10:46:40.559Z,3.50
2018-03-28T10:49:08.263Z,3.70
2018-03-28T10:51:36.738Z,3.47
2018-03-28T10:54:04.331Z,4.07
2018-03-28T10:56:31.905Z,3.93
2018-03-28T10:58:59.896Z,4.13
2018-03-28T11:01:27.629Z,3.65
2018-03-28T11:03:55.162Z,4.23
2018-03-28T11:06:22.699Z,4.17
2018-03-28T11:08:50.219Z,4.30
2018-03-28T11:11:17.762Z,4.40
2018-03-28T11:13:45.730Z,4.27
2018-03-28T11:16:13.433Z,4.43
2018-03-28T11:18:41.023Z,5.20
2018-03-28T11:21:08.572Z,4.90
2018-03-28T11:23:36.258Z,4.50
2018-03-28T11:26:03.800Z,5.77
2018-03-28T11:28:32.524Z,5.43
2018-03-28T11:31:00.112Z,5.83
2018-03-28T11:33:27.623Z,5.57
2018-03-28T11:35:55.164Z,6.03
2018-03-28T11:38:23.227Z,6.85
2018-03-28T11:40:50.787Z,6.67
2018-03-28T11:43:18.813Z,7.27
2018-03-28T11:45:46.464Z,7.63
2018-03-28T11:48:14.013Z,7.37
2018-03-28T11:50:48.314Z,8.00
2018-03-28T11:53:19.373Z,8.13
2018-03-28T11:58:23.596Z,9.10
2018-03-28T12:00:55.725Z,9.35
2018-03-28T12:03:27.662Z,9.77
2018-03-28T12:05:58.323Z,9.82
2018-03-28T12:08:26.458Z,9.40
2018-03-28T12:10:54.746Z,9.93
2018-03-28T12:13:22.347Z,8.87
2018-03-28T12:15:53.444Z,9.03
2018-03-28T12:18:21.065Z,8.60
2018-03-28T12:20:51.023Z,8.53
2018-03-28T12:23:24.578Z,8.17
2018-03-28T12:25:52.902Z,8.50
2018-03-28T12:28:27.948Z,7.20
2018-03-28T12:31:00.314Z,8.05
2018-03-28T12:33:28.414Z,8.70
2018-03-28T12:35:58.194Z,8.57
2018-03-28T12:38:35.425Z,8.00
2018-03-28T12:41:03.282Z,7.83
2018-03-28T12:43:35.196Z,7.47
2018-03-28T12:46:05.065Z,6.80
2018-03-28T12:48:32.918Z,7.10
2018-03-28T12:51:03.240Z,6.60
2018-03-28T12:53:33.578Z,6.23
2018-03-28T12:56:01.842Z,5.63
2018-03-28T12:58:31.548Z,6.55
2018-03-28T13:01:00.454Z,5.53
2018-03-28T13:03:28.282Z,6.03
2018-03-28T13:06:00.081Z,6.37
2018-03-28T13:08:30.827Z,6.50
2018-03-28T13:10:59.632Z,7.13
2018-03-28T13:13:27.360Z,6.90
2018-03-28T13:15:57.039Z,5.87
2018-03-28T13:18:27.596Z,6.03
2018-03-28T13:20:58.877Z,6.07
2018-03-28T13:23:30.099Z,6.50
2018-03-28T13:25:58.052Z,5.80
2018-03-28T13:28:28.297Z,7.00
2018-03-28T13:30:57.885Z,8.27
2018-03-28T13:33:29.335Z,8.33
2018-03-28T13:36:03.623Z,7.60
2018-03-28T13:38:35.385Z,8.63
2018-03-28T13:41:04.866Z,7.87
2018-03-28T13:43:32.420Z,8.97
2018-03-28T13:45:59.975Z,8.07
2018-03-28T13:48:27.715Z,5.67
2018-03-28T13:50:56.535Z,7.50
2018-03-28T13:53:29.581Z,5.03
2018-03-28T13:55:59.257Z,6.17
2018-03-28T13:58:26.991Z,5.47
2018-03-28T14:00:54.511Z,4.97
2018-03-28T14:03:22.268Z,4.67
2018-03-28T14:05:51.020Z,4.10
2018-03-28T14:08:20.164Z,3.83
2018-03-28T14:10:47.704Z,3.50
2018-03-28T14:13:15.258Z,4.03
2018-03-28T14:15:43.073Z,5.07
2018-03-28T14:18:10.624Z,4.53
2018-03-28T14:20:38.164Z,6.50
2018-03-28T14:23:05.801Z,5.22
2018-03-28T14:25:33.314Z,7.93
2018-03-28T14:28:00.961Z,15.03
2018-03-28T14:30:28.551Z,7.70
2018-03-28T14:32:56.520Z,10.30
2018-03-28T14:35:24.036Z,5.40
2018-03-28T14:37:51.595Z,12.93
2018-03-28T14:40:19.231Z,10.30
2018-03-28T14:42:54.592Z,5.50
2018-03-28T14:45:14.389Z,2.70
2018-03-28T14:47:41.936Z,2.53
2018-03-28T14:50:09.484Z,2.70
2018-03-28T14:52:37.027Z,2.07
2018-03-28T14:55:06.843Z,2.50
2018-03-28T14:57:34.402Z,2.03
2018-03-28T15:00:01.919Z,2.13
2018-03-28T15:02:29.473Z,2.20
2018-03-28T15:04:56.992Z,1.83
2018-03-28T15:07:24.571Z,1.83
2018-03-28T15:09:52.350Z,1.70
2018-03-28T15:12:19.955Z,1.40
2018-03-28T15:14:47.615Z,1.80
2018-03-28T15:17:15.963Z,1.70
2018-03-28T15:19:45.731Z,1.70
2018-03-28T15:22:13.243Z,2.03
2018-03-28T15:24:40.817Z,5.18
2018-03-28T15:27:08.340Z,4.90
2018-03-28T15:29:36.324Z,3.92
2018-03-28T15:32:03.874Z,3.80
2018-03-28T15:34:31.442Z,2.27
2018-03-28T15:36:59.084Z,2.80
2018-03-28T15:39:26.699Z,2.00
2018-03-28T15:41:54.184Z,1.77
2018-03-28T15:44:21.766Z,1.60
2018-03-28T15:46:49.279Z,2.40
2018-03-28T15:49:16.836Z,4.60
2018-03-28T15:51:44.760Z,2.63
2018-03-28T15:54:12.325Z,3.17
2018-03-28T15:56:40.246Z,4.40
2018-03-28T15:59:07.906Z,3.47
2018-03-28T16:01:35.395Z,2.60
2018-03-28T16:04:02.943Z,6.07
2018-03-28T16:06:30.471Z,8.80
2018-03-28T16:08:58.929Z,3.40
2018-03-28T16:11:26.528Z,4.35
2018-03-28T16:13:59.838Z,2.95
2018-03-28T16:16:29.529Z,4.30
2018-03-28T16:18:59.403Z,4.12
2018-03-28T16:21:28.781Z,7.17
2018-03-28T16:23:58.171Z,10.73
2018-03-28T16:26:29.084Z,8.60
2018-03-28T16:28:57.214Z,4.40
2018-03-28T16:31:27.748Z,6.00
2018-03-28T16:33:57.976Z,6.17
2018-03-28T16:36:26.318Z,6.53
2018-03-28T16:38:56.139Z,7.13
2018-03-28T16:41:24.037Z,8.40
2018-03-28T16:43:55.038Z,9.60
2018-03-28T16:46:22.712Z,7.50
2018-03-28T16:48:53.360Z,6.18
2018-03-28T16:51:24.411Z,5.85
2018-03-28T16:53:53.852Z,3.25
2018-03-28T16:56:24.225Z,6.83
2018-03-28T17:01:32.885Z,8.35
2018-03-28T17:04:03.447Z,10.37
2018-03-28T17:06:35.073Z,11.25
2018-03-28T17:09:07.148Z,9.60
2018-03-28T17:11:38.226Z,16.47
2018-03-28T17:14:08.662Z,25.13
2018-03-28T17:16:40.032Z,16.80
2018-03-28T17:19:13.873Z,15.83
2018-03-28T17:21:46.419Z,3.40
2018-03-28T17:24:18.978Z,3.17
2018-03-28T17:26:50.025Z,1.90
2018-03-28T17:29:22.282Z,1.93
2018-03-28T17:31:54.526Z,1.40
2018-03-28T17:37:04.183Z,1.70
2018-03-28T17:39:35.694Z,1.98
2018-03-28T17:42:06.188Z,1.80
2018-03-28T17:44:39.967Z,1.80
2018-03-28T17:47:12.299Z,1.83
2018-03-28T17:49:44.779Z,1.90
2018-03-28T17:52:20.905Z,1.47
2018-03-28T17:54:54.489Z,1.40
2018-03-28T17:57:27.079Z,1.53
2018-03-28T17:59:59.459Z,1.50
2018-03-28T18:02:30.939Z,1.95
2018-03-28T18:05:06.766Z,1.60
2018-03-28T18:07:39.844Z,1.75
2018-03-28T18:10:12.929Z,1.90
2018-03-28T18:12:47.141Z,1.90
2018-03-28T18:15:21.523Z,2.10
2018-03-28T18:17:53.775Z,1.60
2018-03-28T18:20:33.450Z,1.90
2018-03-28T18:23:05.750Z,1.93
2018-03-28T18:25:40.532Z,2.40
2018-03-28T18:28:12.162Z,2.10
2018-03-28T18:30:48.208Z,2.73
2018-03-28T18:33:18.504Z,2.57
2018-03-28T18:35:49.658Z,2.27
2018-03-28T18:38:21.344Z,2.45
2018-03-28T18:40:53.065Z,2.40
2018-03-28T18:43:24.159Z,1.87
2018-03-28T18:45:55.130Z,2.20
2018-03-28T18:48:27.238Z,1.87
2018-03-28T18:50:57.315Z,1.20
2018-03-28T18:53:25.061Z,1.23
2018-03-28T18:55:52.592Z,1.20
2018-03-28T18:58:20.135Z,1.30
2018-03-28T19:00:47.918Z,1.33
2018-03-28T19:03:15.540Z,1.40
2018-03-28T19:05:43.070Z,1.40
2018-03-28T19:08:11.049Z,1.30
2018-03-28T19:10:38.595Z,1.58
2018-03-28T19:13:06.290Z,1.70
2018-03-28T19:15:36.175Z,1.40
2018-03-28T19:18:04.231Z,1.40
2018-03-28T19:20:32.550Z,0.90
2018-03-28T19:23:00.648Z,1.00
2018-03-28T19:25:28.161Z,1.10
2018-03-28T19:27:55.700Z,1.13
2018-03-28T19:30:23.221Z,1.40
2018-03-28T19:32:50.771Z,1.10
2018-03-28T19:35:18.875Z,1.58
2018-03-28T19:37:46.945Z,1.87
2018-03-28T19:40:14.452Z,1.30
2018-03-28T19:42:42.104Z,1.50
2018-03-28T19:45:09.863Z,1.40
2018-03-28T19:47:37.419Z,1.17
2018-03-28T19:50:04.985Z,1.20
2018-03-28T19:52:32.510Z,1.33
2018-03-28T19:55:00.065Z,1.20
2018-03-28T19:57:27.604Z,1.40
2018-03-28T19:59:55.163Z,1.70
2018-03-28T20:02:22.673Z,1.40
2018-03-28T20:04:50.550Z,1.60
2018-03-28T20:07:19.374Z,1.40
2018-03-28T20:09:46.954Z,1.52
2018-03-28T20:12:14.563Z,1.77
2018-03-28T20:14:42.346Z,1.33
2018-03-28T20:17:10.334Z,1.55
2018-03-28T20:19:37.890Z,1.60
2018-03-28T20:22:05.888Z,1.67
2018-03-28T20:24:34.098Z,2.17
2018-03-28T20:27:01.722Z,2.27
2018-03-28T20:29:29.306Z,1.93
2018-03-28T20:31:56.824Z,2.30
2018-03-28T20:34:24.343Z,1.70
2018-03-28T20:36:51.900Z,2.00
2018-03-28T20:39:19.430Z,2.60
2018-03-28T20:41:46.982Z,2.53
2018-03-28T20:44:14.493Z,2.60
2018-03-28T20:46:42.041Z,2.25
2018-03-28T20:49:09.559Z,2.50
2018-03-28T20:51:37.122Z,2.67
2018-03-28T20:54:04.656Z,2.30
2018-03-28T20:56:32.220Z,2.45
2018-03-28T20:59:01.851Z,2.70
2018-03-28T21:01:29.427Z,2.87
2018-03-28T21:03:56.973Z,1.93
2018-03-28T21:06:24.523Z,2.33
2018-03-28T21:08:52.069Z,2.90
2018-03-28T21:11:21.358Z,2.50
2018-03-28T21:13:49.332Z,2.30
2018-03-28T21:16:16.884Z,3.20
2018-03-28T21:18:44.435Z,2.80
2018-03-28T21:21:11.938Z,2.33
2018-03-28T21:23:39.491Z,3.03
2018-03-28T21:26:07.028Z,2.40
2018-03-28T21:28:34.605Z,3.07
2018-03-28T21:31:02.120Z,2.37
2018-03-28T21:33:33.675Z,2.80
2018-03-28T21:36:04.303Z,2.67
2018-03-28T21:38:32.127Z,2.50
2018-03-28T21:40:59.659Z,2.67
2018-03-28T21:43:28.815Z,3.20
2018-03-28T21:46:00.075Z,3.30
2018-03-28T21:48:29.014Z,4.40
2018-03-28T21:50:59.871Z,4.30
2018-03-28T21:53:29.631Z,4.35
2018-03-28T21:56:00.027Z,4.63
2018-03-28T21:58:27.649Z,4.35
2018-03-28T22:00:58.051Z,4.73
2018-03-28T22:03:31.412Z,4.82
2018-03-28T22:06:04.750Z,5.40
2018-03-28T22:08:32.565Z,5.37
2018-03-28T22:11:00.314Z,5.23
2018-03-28T22:13:32.200Z,6.07
2018-03-28T22:16:00.763Z,5.77
2018-03-28T22:18:28.443Z,5.50
2018-03-28T22:20:56.908Z,5.78
2018-03-28T22:23:24.719Z,6.03
2018-03-28T22:25:52.258Z,5.23
2018-03-28T22:28:23.728Z,5.33
2018-03-28T22:30:52.111Z,6.00
2018-03-28T22:33:20.292Z,6.00
2018-03-28T22:35:47.938Z,6.23
2018-03-28T22:38:16.193Z,6.17
2018-03-28T22:40:44.575Z,6.97
2018-03-28T22:43:13.556Z,7.00
2018-03-28T22:45:45.616Z,7.10
2018-03-28T22:48:13.364Z,6.90
2018-03-28T22:50:41.695Z,6.93
2018-03-28T22:53:09.299Z,7.27
2018-03-28T22:55:36.840Z,6.12
2018-03-28T22:58:04.392Z,6.35
2018-03-28T23:00:31.944Z,6.75
2018-03-28T23:02:59.463Z,4.90
2018-03-28T23:05:28.496Z,6.70
2018-03-28T23:07:56.278Z,5.70
2018-03-28T23:10:24.669Z,6.30
2018-03-28T23:12:53.169Z,6.57
2018-03-28T23:15:22.100Z,7.10
2018-03-28T23:17:54.922Z,7.57
2018-03-28T23:20:25.909Z,7.53
2018-03-28T23:22:54.639Z,6.10
2018-03-28T23:25:22.169Z,7.30
2018-03-28T23:27:52.625Z,8.87
2018-03-28T23:30:22.957Z,8.50
2018-03-28T23:32:51.638Z,8.45
2018-03-28T23:35:19.769Z,9.47
2018-03-28T23:37:47.871Z,8.43
2018-03-28T23:40:16.501Z,9.07
2018-03-28T23:42:46.385Z,9.20
2018-03-28T23:45:14.491Z,9.00
2018-03-28T23:47:42.705Z,9.93
2018-03-28T23:50:12.080Z,10.60
2018-03-28T23:52:39.600Z,10.43
2018-03-28T23:55:11.643Z,10.20
2018-03-28T23:57:39.305Z,10.70
